createdAt,value
2022-12-22T00:01:56.106Z,4.67
2022-12-22T00:04:41.843Z,7.90
2022-12-22T00:07:27.192Z,4.77
2022-12-22T00:10:12.578Z,6.13
2022-12-22T00:12:58.013Z,6.93
2022-12-22T00:15:43.461Z,5.17
2022-12-22T00:18:35.095Z,5.27
2022-12-22T00:21:20.340Z,4.80
2022-12-22T00:24:05.589Z,6.63
2022-12-22T00:26:52.960Z,7.80
2022-12-22T00:29:38.229Z,7.47
2022-12-22T00:32:24.034Z,5.00
2022-12-22T00:35:10.150Z,5.33
2022-12-22T00:37:56.430Z,8.73
2022-12-22T00:40:45.442Z,6.17
2022-12-22T00:43:30.786Z,10.90
2022-12-22T00:46:16.936Z,4.60
2022-12-22T00:49:02.824Z,5.20
2022-12-22T00:51:48.569Z,6.20
2022-12-22T00:54:34.915Z,7.50
2022-12-22T00:57:20.770Z,8.63
2022-12-22T01:00:06.865Z,8.80
2022-12-22T01:02:52.342Z,6.07
2022-12-22T01:05:37.500Z,7.03
2022-12-22T01:08:23.164Z,8.67
2022-12-22T01:11:08.556Z,7.57
2022-12-22T01:13:53.775Z,7.10
2022-12-22T01:16:39.067Z,6.50
2022-12-22T01:19:24.108Z,6.87
2022-12-22T01:22:09.408Z,7.97
2022-12-22T01:24:54.728Z,5.90
2022-12-22T01:27:39.942Z,7.43
2022-12-22T01:30:25.775Z,8.40
2022-12-22T01:33:11.058Z,7.10
2022-12-22T01:35:56.415Z,8.63
2022-12-22T01:38:41.638Z,8.03
2022-12-22T01:41:29.413Z,7.63
2022-12-22T01:44:14.702Z,8.53
2022-12-22T01:47:04.956Z,9.57
2022-12-22T01:50:01.304Z,8.17
2022-12-22T01:52:51.747Z,7.63
2022-12-22T01:55:40.566Z,8.43
2022-12-22T01:58:31.023Z,13.10
2022-12-22T02:01:16.375Z,9.17
2022-12-22T02:04:01.361Z,8.33
2022-12-22T02:06:59.996Z,7.50
2022-12-22T02:09:55.587Z,7.87
2022-12-22T02:12:51.031Z,6.80
2022-12-22T02:16:07.640Z,8.00
2022-12-22T02:18:56.008Z,7.47
2022-12-22T02:21:43.239Z,9.63
2022-12-22T02:24:43.703Z,8.30
2022-12-22T02:27:29.315Z,8.13
2022-12-22T02:30:16.875Z,6.33
2022-12-22T02:33:09.559Z,7.70
2022-12-22T02:36:01.597Z,8.00
2022-12-22T02:38:58.712Z,7.63
2022-12-22T02:41:50.273Z,8.60
2022-12-22T02:45:04.783Z,7.60
2022-12-22T02:48:28.578Z,7.20
2022-12-22T02:51:19.996Z,6.80
2022-12-22T02:54:05.198Z,7.40
2022-12-22T02:56:50.570Z,8.87
2022-12-22T02:59:35.725Z,8.53
2022-12-22T03:02:20.986Z,11.10
2022-12-22T03:05:06.357Z,10.33
2022-12-22T03:07:51.710Z,9.13
2022-12-22T03:10:37.022Z,7.73
2022-12-22T03:13:22.186Z,9.77
2022-12-22T03:16:07.691Z,8.90
2022-12-22T03:18:52.929Z,7.90
2022-12-22T03:21:38.338Z,8.70
2022-12-22T03:24:23.596Z,7.90
2022-12-22T03:26:50.241Z,7.30
2022-12-22T03:29:16.838Z,8.53
2022-12-22T03:31:43.680Z,8.07
2022-12-22T03:34:10.347Z,7.33
2022-12-22T03:36:36.972Z,7.70
2022-12-22T03:39:04.624Z,7.73
2022-12-22T03:41:50.500Z,11.40
2022-12-22T03:44:35.459Z,8.07
2022-12-22T03:47:02.174Z,11.10
2022-12-22T03:49:28.843Z,11.20
2022-12-22T03:51:55.443Z,10.40
2022-12-22T03:54:23.893Z,10.60
2022-12-22T03:56:51.481Z,8.27
2022-12-22T03:59:18.554Z,8.80
2022-12-22T04:01:47.837Z,9.17
2022-12-22T04:04:15.417Z,7.33
2022-12-22T04:06:42.679Z,9.30
2022-12-22T04:09:09.453Z,10.50
2022-12-22T04:11:54.693Z,7.50
2022-12-22T04:14:21.706Z,9.10
2022-12-22T04:16:48.672Z,8.57
2022-12-22T04:19:16.112Z,9.13
2022-12-22T04:21:43.183Z,11.23
2022-12-22T04:24:11.817Z,11.00
2022-12-22T04:26:39.350Z,8.80
2022-12-22T04:29:06.032Z,9.80
2022-12-22T04:31:32.803Z,12.93
2022-12-22T04:33:59.394Z,11.37
2022-12-22T04:36:26.021Z,11.37
2022-12-22T04:38:52.693Z,10.93
2022-12-22T04:41:19.346Z,10.77
2022-12-22T04:43:45.906Z,12.07
2022-12-22T04:46:12.562Z,12.93
2022-12-22T04:48:39.246Z,11.43
2022-12-22T04:51:06.082Z,9.90
2022-12-22T04:53:33.331Z,12.93
2022-12-22T04:56:03.028Z,11.93
2022-12-22T04:58:29.933Z,8.80
2022-12-22T05:00:57.159Z,10.70
2022-12-22T05:03:24.385Z,10.20
2022-12-22T05:05:51.237Z,9.17
2022-12-22T05:08:17.906Z,10.00
2022-12-22T05:10:44.646Z,8.23
2022-12-22T05:13:11.349Z,7.00
2022-12-22T05:15:38.209Z,10.90
2022-12-22T05:18:05.215Z,10.30
2022-12-22T05:20:32.039Z,11.00
2022-12-22T05:22:58.837Z,8.87
2022-12-22T05:25:28.545Z,10.30
2022-12-22T05:27:58.045Z,13.97
2022-12-22T05:30:24.785Z,15.27
2022-12-22T05:32:51.408Z,9.37
2022-12-22T05:35:18.146Z,11.10
2022-12-22T05:37:44.757Z,12.50
2022-12-22T05:40:12.172Z,11.10
2022-12-22T05:42:39.607Z,11.47
2022-12-22T05:45:12.927Z,11.53
2022-12-22T05:47:40.044Z,10.40
2022-12-22T05:50:07.614Z,10.07
2022-12-22T05:52:34.233Z,12.17
2022-12-22T05:55:00.854Z,16.30
2022-12-22T05:57:27.412Z,15.83
2022-12-22T05:59:54.026Z,11.13
2022-12-22T06:02:20.955Z,15.67
2022-12-22T06:04:47.733Z,13.90
2022-12-22T06:07:14.378Z,13.67
2022-12-22T06:09:40.977Z,15.53
2022-12-22T06:12:08.303Z,16.37
2022-12-22T06:14:35.012Z,15.73
2022-12-22T06:17:01.692Z,13.83
2022-12-22T06:19:28.306Z,11.77
2022-12-22T06:21:54.973Z,12.60
2022-12-22T06:24:21.671Z,13.50
2022-12-22T06:26:48.279Z,18.00
2022-12-22T06:29:15.044Z,17.00
2022-12-22T06:31:41.767Z,14.37
2022-12-22T06:34:10.109Z,14.07
2022-12-22T06:36:38.528Z,13.73
2022-12-22T06:39:06.323Z,14.67
2022-12-22T06:41:51.590Z,14.80
2022-12-22T06:44:18.288Z,18.77
2022-12-22T06:46:44.903Z,17.63
2022-12-22T06:49:11.580Z,13.50
2022-12-22T06:51:40.507Z,14.77
2022-12-22T06:54:07.194Z,16.63
2022-12-22T06:56:33.895Z,15.97
2022-12-22T06:59:00.516Z,15.43
2022-12-22T07:01:27.566Z,16.37
2022-12-22T07:03:54.610Z,16.57
2022-12-22T07:06:21.446Z,14.97
2022-12-22T07:08:48.212Z,15.57
2022-12-22T07:11:15.347Z,14.20
2022-12-22T07:13:42.247Z,14.77
2022-12-22T07:16:09.781Z,13.17
2022-12-22T07:18:38.712Z,12.50
2022-12-22T07:21:07.842Z,14.03
2022-12-22T07:23:35.297Z,14.73
2022-12-22T07:26:02.292Z,12.63
2022-12-22T07:28:29.013Z,12.73
2022-12-22T07:30:56.063Z,10.80
2022-12-22T07:33:22.737Z,12.00
2022-12-22T07:35:49.680Z,11.17
2022-12-22T07:38:16.367Z,13.70
2022-12-22T07:40:44.987Z,16.50
2022-12-22T07:43:13.412Z,12.30
2022-12-22T07:45:40.075Z,10.87
2022-12-22T07:48:26.610Z,12.30
2022-12-22T07:51:04.033Z,11.87
2022-12-22T07:53:30.731Z,10.13
2022-12-22T07:55:57.372Z,10.37
2022-12-22T07:58:24.014Z,13.50
2022-12-22T08:00:50.706Z,10.20
2022-12-22T08:03:17.441Z,13.37
2022-12-22T08:05:45.493Z,11.50
2022-12-22T08:08:12.108Z,9.77
2022-12-22T08:10:38.869Z,10.40
2022-12-22T08:13:05.566Z,9.73
2022-12-22T08:15:32.241Z,9.30
2022-12-22T08:17:58.905Z,12.53
2022-12-22T08:20:26.000Z,14.10
2022-12-22T08:22:52.548Z,13.00
2022-12-22T08:25:19.216Z,14.90
2022-12-22T08:27:49.297Z,13.83
2022-12-22T08:30:16.015Z,14.00
2022-12-22T08:32:42.745Z,16.03
2022-12-22T08:35:10.117Z,15.37
2022-12-22T08:37:41.467Z,18.17
2022-12-22T08:40:16.556Z,18.90
2022-12-22T08:42:43.292Z,45.37
2022-12-22T08:45:11.407Z,13.80
2022-12-22T08:47:38.309Z,11.77
2022-12-22T08:50:06.078Z,13.67
2022-12-22T08:52:32.704Z,13.40
2022-12-22T08:54:59.353Z,10.50
2022-12-22T08:57:25.916Z,9.70
2022-12-22T08:59:52.797Z,8.00
2022-12-22T09:02:19.527Z,13.80
2022-12-22T09:04:46.093Z,10.80
2022-12-22T09:07:12.602Z,11.63
2022-12-22T09:09:39.250Z,6.60
2022-12-22T09:12:06.567Z,4.60
2022-12-22T09:14:33.757Z,3.70
2022-12-22T09:17:00.459Z,3.90
2022-12-22T09:19:27.167Z,6.57
2022-12-22T09:21:54.974Z,6.00
2022-12-22T09:24:21.678Z,3.60
2022-12-22T09:26:48.412Z,5.03
2022-12-22T09:29:15.769Z,7.13
2022-12-22T09:31:43.246Z,8.20
2022-12-22T09:34:15.322Z,7.90
2022-12-22T09:36:44.155Z,6.87
2022-12-22T09:39:11.148Z,6.87
2022-12-22T09:41:46.848Z,6.30
2022-12-22T09:44:27.142Z,8.77
2022-12-22T09:46:56.099Z,7.73
2022-12-22T09:49:23.220Z,23.07
2022-12-22T09:51:54.040Z,15.23
2022-12-22T09:54:21.267Z,10.87
2022-12-22T09:56:48.140Z,8.80
2022-12-22T09:59:16.974Z,6.20
2022-12-22T10:01:56.651Z,7.47
2022-12-22T10:04:57.472Z,6.30
2022-12-22T10:07:32.056Z,5.90
2022-12-22T10:10:20.732Z,7.77
2022-12-22T10:12:49.731Z,8.10
2022-12-22T10:15:21.678Z,7.70
2022-12-22T10:17:53.448Z,9.50
2022-12-22T10:20:27.976Z,10.63
2022-12-22T10:23:00.761Z,11.23
2022-12-22T10:26:26.847Z,12.40
2022-12-22T10:28:28.293Z,14.33
2022-12-22T10:31:10.306Z,12.07
2022-12-22T10:33:42.552Z,13.37
2022-12-22T10:36:14.867Z,12.13
2022-12-22T10:38:55.307Z,12.13
2022-12-22T10:41:24.262Z,14.27
2022-12-22T10:43:52.840Z,13.67
2022-12-22T10:46:20.696Z,10.63
2022-12-22T10:48:47.322Z,12.30
2022-12-22T10:51:15.379Z,13.17
2022-12-22T10:53:41.924Z,13.57
2022-12-22T10:56:09.182Z,16.63
2022-12-22T10:58:50.352Z,16.83
2022-12-22T11:01:24.520Z,19.17
2022-12-22T11:03:51.345Z,15.30
2022-12-22T11:06:18.797Z,21.37
2022-12-22T11:08:51.233Z,24.10
2022-12-22T11:11:39.445Z,23.23
2022-12-22T11:14:17.463Z,21.13
2022-12-22T11:16:51.890Z,25.67
2022-12-22T11:19:33.719Z,18.80
2022-12-22T11:22:10.180Z,17.43
2022-12-22T11:25:08.514Z,17.10
2022-12-22T11:27:44.024Z,17.83
2022-12-22T11:30:20.470Z,17.37
2022-12-22T11:32:54.057Z,17.53
2022-12-22T11:35:26.336Z,20.30
2022-12-22T11:38:02.484Z,21.53
2022-12-22T11:40:42.499Z,22.00
2022-12-22T11:43:18.033Z,20.67
2022-12-22T11:45:55.387Z,23.50
2022-12-22T11:48:59.848Z,22.27
2022-12-22T11:51:57.891Z,21.47
2022-12-22T11:54:43.031Z,19.47
2022-12-22T11:57:16.564Z,20.83
2022-12-22T11:59:46.137Z,23.03
2022-12-22T12:02:28.161Z,19.70
2022-12-22T12:05:17.040Z,18.53
2022-12-22T12:07:45.988Z,20.67
2022-12-22T12:10:27.466Z,19.10
2022-12-22T12:13:27.392Z,22.90
2022-12-22T12:16:18.696Z,26.13
2022-12-22T12:19:04.188Z,23.47
2022-12-22T12:21:50.503Z,25.50
2022-12-22T12:24:52.737Z,23.03
2022-12-22T12:27:39.144Z,25.60
2022-12-22T12:33:08.694Z,25.93
2022-12-22T12:35:51.991Z,25.20
2022-12-22T12:39:06.879Z,23.60
2022-12-22T12:41:32.641Z,25.97
2022-12-22T12:44:00.263Z,25.47
2022-12-22T12:47:07.195Z,24.20
2022-12-22T12:49:33.843Z,29.10
2022-12-22T12:52:02.556Z,24.67
2022-12-22T12:54:29.060Z,26.43
2022-12-22T12:57:01.034Z,24.60
2022-12-22T12:59:46.634Z,24.57
2022-12-22T13:02:29.712Z,24.40
2022-12-22T13:05:17.405Z,24.33
2022-12-22T13:08:12.119Z,23.80
2022-12-22T13:10:56.039Z,22.03
2022-12-22T13:13:25.481Z,22.00
2022-12-22T13:16:01.688Z,19.90
2022-12-22T13:18:34.083Z,20.10
2022-12-22T13:24:23.933Z,18.60
2022-12-22T13:26:54.782Z,13.60
2022-12-22T13:29:28.923Z,16.33
2022-12-22T13:32:05.179Z,15.40
2022-12-22T13:35:29.688Z,15.70
2022-12-22T13:37:48.835Z,12.67
2022-12-22T13:40:18.960Z,15.50
2022-12-22T13:42:46.972Z,14.53
2022-12-22T13:45:36.749Z,13.97
2022-12-22T13:48:09.164Z,13.27
2022-12-22T13:50:38.233Z,10.87
2022-12-22T13:53:07.506Z,15.10
2022-12-22T13:55:34.235Z,10.40
2022-12-22T13:58:23.038Z,11.17
2022-12-22T14:01:01.455Z,12.03
2022-12-22T14:03:58.043Z,15.53
2022-12-22T14:06:37.119Z,15.10
2022-12-22T14:09:26.786Z,14.10
2022-12-22T14:12:02.120Z,17.20
2022-12-22T14:14:38.517Z,15.47
2022-12-22T14:17:21.833Z,17.03
2022-12-22T14:19:51.294Z,15.80
2022-12-22T14:22:27.864Z,17.50
2022-12-22T14:25:00.381Z,22.37
2022-12-22T14:27:33.053Z,18.57
2022-12-22T14:30:02.575Z,19.37
2022-12-22T14:32:43.810Z,19.97
2022-12-22T14:35:21.611Z,20.00
2022-12-22T14:38:15.588Z,19.97
2022-12-22T14:40:43.599Z,21.43
2022-12-22T14:43:17.512Z,20.17
2022-12-22T14:45:46.503Z,21.90
2022-12-22T14:48:24.749Z,21.40
2022-12-22T14:50:52.168Z,26.10
2022-12-22T14:53:27.502Z,21.60
2022-12-22T14:55:54.207Z,30.97
2022-12-22T14:58:33.299Z,32.50
2022-12-22T15:01:18.889Z,48.77
2022-12-22T15:04:18.455Z,37.00
2022-12-22T15:06:47.867Z,31.67
2022-12-22T15:09:14.492Z,29.77
2022-12-22T15:11:44.344Z,26.90
2022-12-22T15:14:17.301Z,29.80
2022-12-22T15:16:44.708Z,21.70
2022-12-22T15:19:14.539Z,24.20
2022-12-22T15:21:41.302Z,25.07
2022-12-22T15:24:15.746Z,26.43
2022-12-22T15:26:42.976Z,26.97
2022-12-22T15:29:09.579Z,24.73
2022-12-22T15:31:37.255Z,29.50
2022-12-22T15:34:07.397Z,30.37
2022-12-22T15:36:34.018Z,25.00
2022-12-22T15:39:00.585Z,20.47
2022-12-22T15:41:27.276Z,27.30
2022-12-22T15:43:57.981Z,29.00
2022-12-22T15:46:25.594Z,27.27
2022-12-22T15:48:52.622Z,25.13
2022-12-22T15:51:27.427Z,31.13
2022-12-22T15:53:55.123Z,27.23
2022-12-22T15:56:24.646Z,26.70
2022-12-22T15:58:51.309Z,24.83
2022-12-22T16:01:17.986Z,31.57
2022-12-22T16:03:44.657Z,28.60
2022-12-22T16:06:16.234Z,30.57
2022-12-22T16:08:45.874Z,94.80
2022-12-22T16:11:12.624Z,42.70
2022-12-22T16:13:39.450Z,34.37
2022-12-22T16:16:06.782Z,31.43
2022-12-22T16:18:33.431Z,41.67
2022-12-22T16:21:07.825Z,30.07
2022-12-22T16:23:35.812Z,77.97
2022-12-22T16:26:03.911Z,39.60
2022-12-22T16:28:30.811Z,33.47
2022-12-22T16:30:57.580Z,31.90
2022-12-22T16:33:24.279Z,31.20
2022-12-22T16:35:50.972Z,32.70
2022-12-22T16:38:19.205Z,29.17
2022-12-22T16:40:52.908Z,31.63
2022-12-22T16:46:22.473Z,30.07
2022-12-22T16:48:54.364Z,32.07
2022-12-22T16:51:33.927Z,28.60
2022-12-22T16:54:01.316Z,33.83
2022-12-22T16:56:30.364Z,27.13
2022-12-22T16:58:57.522Z,27.10
2022-12-22T17:01:36.412Z,32.00
2022-12-22T17:04:07.582Z,28.53
2022-12-22T17:06:34.537Z,33.87
2022-12-22T17:09:02.938Z,32.20
2022-12-22T17:11:31.536Z,31.77
2022-12-22T17:14:06.649Z,30.20
2022-12-22T17:16:33.486Z,32.40
2022-12-22T17:19:00.206Z,32.13
2022-12-22T17:21:29.241Z,31.60
2022-12-22T17:24:03.909Z,32.00
2022-12-22T17:26:33.048Z,33.53
2022-12-22T17:28:59.883Z,36.10
2022-12-22T17:31:27.215Z,32.30
2022-12-22T17:33:53.854Z,31.97
2022-12-22T17:36:46.754Z,37.80
2022-12-22T17:39:19.311Z,35.27
2022-12-22T17:41:49.084Z,34.17
2022-12-22T17:44:22.765Z,33.53
2022-12-22T17:46:49.845Z,35.70
2022-12-22T17:49:19.781Z,37.70
2022-12-22T17:51:46.672Z,33.20
2022-12-22T17:54:24.385Z,37.10
2022-12-22T17:56:51.628Z,33.77
2022-12-22T17:59:18.251Z,36.10
2022-12-22T18:01:45.058Z,42.67
2022-12-22T18:04:12.008Z,38.20
2022-12-22T18:06:39.869Z,30.43
2022-12-22T18:09:07.580Z,39.10
2022-12-22T18:11:34.260Z,34.33
2022-12-22T18:14:01.111Z,40.63
2022-12-22T18:16:28.376Z,34.50
2022-12-22T18:18:55.400Z,40.73
2022-12-22T18:21:24.096Z,37.00
2022-12-22T18:23:51.569Z,36.87
2022-12-22T18:26:29.074Z,39.07
2022-12-22T18:28:56.254Z,36.03
2022-12-22T18:31:23.786Z,36.87
2022-12-22T18:33:51.060Z,39.37
2022-12-22T18:36:27.925Z,37.00
2022-12-22T18:38:55.022Z,40.20
2022-12-22T18:41:23.423Z,37.20
2022-12-22T18:43:50.165Z,40.13
2022-12-22T18:46:16.956Z,34.80
2022-12-22T18:48:43.882Z,35.33
2022-12-22T18:51:18.331Z,38.90
2022-12-22T18:53:45.118Z,34.77
2022-12-22T18:56:13.724Z,42.00
2022-12-22T18:58:41.175Z,43.17
2022-12-22T19:01:17.247Z,35.60
2022-12-22T19:03:45.593Z,32.00
2022-12-22T19:06:18.243Z,33.83
2022-12-22T19:08:47.223Z,39.23
2022-12-22T19:11:15.469Z,36.90
2022-12-22T19:13:49.684Z,34.33
2022-12-22T19:16:18.813Z,34.87
2022-12-22T19:18:45.704Z,34.03
2022-12-22T19:21:14.182Z,35.80
2022-12-22T19:23:41.091Z,35.73
2022-12-22T19:26:23.016Z,30.93
2022-12-22T19:28:52.964Z,30.67
2022-12-22T19:31:23.238Z,32.50
2022-12-22T19:33:50.666Z,33.70
2022-12-22T19:36:22.046Z,32.00
2022-12-22T19:38:51.095Z,31.67
2022-12-22T19:41:56.923Z,30.87
2022-12-22T19:44:26.244Z,36.47
2022-12-22T19:46:54.157Z,33.70
2022-12-22T19:49:23.611Z,29.97
2022-12-22T19:51:50.600Z,33.43
2022-12-22T19:54:17.494Z,36.70
2022-12-22T19:56:50.479Z,31.10
2022-12-22T19:59:28.291Z,31.47
2022-12-22T20:01:58.651Z,29.73
2022-12-22T20:04:26.072Z,28.53
2022-12-22T20:06:52.777Z,31.13
2022-12-22T20:09:19.495Z,30.17
2022-12-22T20:11:46.319Z,31.33
2022-12-22T20:14:21.969Z,30.70
2022-12-22T20:16:48.764Z,28.60
2022-12-22T20:19:16.149Z,28.23
2022-12-22T20:21:43.281Z,30.73
2022-12-22T20:24:18.637Z,30.00
2022-12-22T20:26:51.815Z,30.00
2022-12-22T20:29:20.590Z,29.43
2022-12-22T20:31:47.301Z,29.60
2022-12-22T20:34:14.023Z,27.97
2022-12-22T20:36:40.800Z,27.23
2022-12-22T20:39:11.954Z,23.07
2022-12-22T20:41:38.656Z,27.70
2022-12-22T20:44:05.461Z,25.40
2022-12-22T20:46:32.160Z,23.97
2022-12-22T20:49:01.235Z,23.43
2022-12-22T20:51:31.704Z,23.00
2022-12-22T20:53:59.202Z,25.27
2022-12-22T20:56:28.587Z,30.63
2022-12-22T20:58:55.696Z,26.40
2022-12-22T21:01:23.513Z,27.17
2022-12-22T21:03:50.739Z,32.87
2022-12-22T21:06:27.233Z,21.60
2022-12-22T21:08:55.908Z,22.37
2022-12-22T21:11:23.039Z,19.90
2022-12-22T21:13:50.685Z,22.40
2022-12-22T21:16:23.126Z,21.40
2022-12-22T21:18:50.940Z,20.43
2022-12-22T21:21:17.662Z,21.43
2022-12-22T21:23:44.333Z,22.13
2022-12-22T21:26:20.350Z,20.40
2022-12-22T21:28:47.224Z,16.70
2022-12-22T21:31:13.896Z,18.07
2022-12-22T21:33:40.641Z,17.23
2022-12-22T21:36:16.835Z,16.90
2022-12-22T21:38:43.511Z,17.10
2022-12-22T21:41:10.123Z,15.77
2022-12-22T21:43:36.877Z,16.77
2022-12-22T21:46:03.633Z,14.73
2022-12-22T21:48:30.310Z,13.77
2022-12-22T21:50:56.941Z,14.07
2022-12-22T21:53:23.580Z,14.43
2022-12-22T21:55:52.337Z,17.17
2022-12-22T21:58:19.070Z,15.80
2022-12-22T22:00:49.389Z,17.10
2022-12-22T22:03:16.644Z,18.43
2022-12-22T22:05:43.504Z,18.37
2022-12-22T22:08:11.792Z,16.00
2022-12-22T22:10:41.269Z,12.50
2022-12-22T22:13:08.749Z,18.73
2022-12-22T22:15:35.628Z,17.50
2022-12-22T22:18:06.998Z,15.10
2022-12-22T22:20:34.667Z,16.20
2022-12-22T22:23:01.786Z,14.73
2022-12-22T22:25:28.535Z,16.90
2022-12-22T22:27:59.418Z,21.23
2022-12-22T22:30:27.004Z,12.40
2022-12-22T22:32:54.848Z,18.53
2022-12-22T22:35:22.570Z,13.50
2022-12-22T22:37:52.522Z,18.10
2022-12-22T22:40:21.604Z,10.60
2022-12-22T22:42:48.177Z,15.40
2022-12-22T22:45:19.798Z,12.77
2022-12-22T22:47:46.361Z,13.60
2022-12-22T22:50:13.319Z,14.30
2022-12-22T22:52:39.849Z,13.33
2022-12-22T22:55:06.774Z,12.33
2022-12-22T22:57:33.411Z,13.07
2022-12-22T23:00:01.242Z,14.67
2022-12-22T23:02:28.100Z,14.83
2022-12-22T23:04:54.900Z,12.70
2022-12-22T23:07:21.543Z,12.50
2022-12-22T23:09:48.186Z,12.50
2022-12-22T23:12:14.965Z,12.73
2022-12-22T23:14:41.588Z,12.10
2022-12-22T23:17:08.269Z,12.57
2022-12-22T23:19:37.239Z,13.20
2022-12-22T23:22:03.945Z,12.77
2022-12-22T23:24:31.336Z,14.00
2022-12-22T23:26:58.608Z,19.43
2022-12-22T23:29:25.356Z,13.90
2022-12-22T23:31:52.161Z,11.23
2022-12-22T23:34:18.899Z,12.93
2022-12-22T23:36:45.537Z,13.33
2022-12-22T23:39:13.616Z,13.43
2022-12-22T23:41:40.349Z,11.80
2022-12-22T23:44:06.994Z,14.87
2022-12-22T23:46:33.642Z,12.40
2022-12-22T23:49:00.531Z,14.37
2022-12-22T23:51:28.651Z,12.27
2022-12-22T23:53:56.826Z,12.60
2022-12-22T23:56:23.571Z,14.00
2022-12-22T23:58:54.588Z,16.00
